createdAt,value
2017-08-10T00:00:20.583Z,1013.82
2017-08-10T00:01:30.191Z,1013.78
2017-08-10T00:02:39.812Z,1013.8
2017-08-10T00:03:49.170Z,1013.8
2017-08-10T00:04:59.089Z,1013.84
2017-08-10T00:06:08.995Z,1013.89
2017-08-10T00:07:18.903Z,1013.93
2017-08-10T00:08:28.522Z,1013.92
2017-08-10T00:09:38.541Z,1013.87
2017-08-10T00:10:48.151Z,1013.89
2017-08-10T00:11:58.390Z,1013.91
2017-08-10T00:13:07.707Z,1013.89
2017-08-10T00:14:17.928Z,1013.89
2017-08-10T00:15:28.149Z,1013.89
2017-08-10T00:16:38.378Z,1013.92
2017-08-10T00:17:48.286Z,1013.92
2017-08-10T00:18:58.220Z,1013.94
2017-08-10T00:20:08.153Z,1014
2017-08-10T00:21:17.870Z,1014.02
2017-08-10T00:22:27.798Z,1013.98
2017-08-10T00:23:37.727Z,1013.98
2017-08-10T00:24:47.024Z,1013.98
2017-08-10T00:25:57.237Z,1013.94
2017-08-10T00:27:06.845Z,1013.94
2017-08-10T00:28:16.767Z,1013.91
2017-08-10T00:29:26.682Z,1013.92
2017-08-10T00:30:36.905Z,1013.93
2017-08-10T00:31:46.831Z,1013.93
2017-08-10T00:32:57.418Z,1013.97
2017-08-10T00:34:07.657Z,1014.01
2017-08-10T00:35:17.256Z,1013.99
2017-08-10T00:36:26.871Z,1013.97
2017-08-10T00:37:36.480Z,1013.96
2017-08-10T00:38:46.088Z,1013.93
2017-08-10T00:39:56.008Z,1013.91
2017-08-10T00:41:05.949Z,1013.88
2017-08-10T00:42:15.563Z,1013.89
2017-08-10T00:43:25.483Z,1013.87
2017-08-10T00:44:35.411Z,1013.9
2017-08-10T00:45:45.031Z,1013.9
2017-08-10T00:46:54.332Z,1013.93
2017-08-10T00:48:04.243Z,1013.98
2017-08-10T00:49:13.843Z,1013.98
2017-08-10T00:50:24.073Z,1014
2017-08-10T00:51:33.997Z,1014.04
2017-08-10T00:52:43.931Z,1014.05
2017-08-10T00:53:53.544Z,1014.08
2017-08-10T00:55:03.157Z,1014.07
2017-08-10T00:56:13.532Z,1014.13
2017-08-10T00:57:23.751Z,1014.1
2017-08-10T00:58:33.660Z,1014.13
2017-08-10T00:59:43.876Z,1014.09
2017-08-10T01:00:53.794Z,1014.06
2017-08-10T01:02:04.073Z,1014.02
2017-08-10T01:03:13.990Z,1014.06
2017-08-10T01:04:24.201Z,1014
2017-08-10T01:05:34.439Z,1013.98
2017-08-10T01:06:44.337Z,1013.92
2017-08-10T01:07:53.734Z,1013.94
2017-08-10T01:09:03.358Z,1013.93
2017-08-10T01:10:13.599Z,1013.99
2017-08-10T01:11:23.216Z,1014.02
2017-08-10T01:12:33.442Z,1014.05
2017-08-10T01:13:43.355Z,1014.09
2017-08-10T01:14:53.274Z,1014.07
2017-08-10T01:16:02.879Z,1014.13
2017-08-10T01:17:12.206Z,1014.17
2017-08-10T01:18:22.423Z,1014.18
2017-08-10T01:19:32.133Z,1014.21
2017-08-10T01:20:41.457Z,1014.2
2017-08-10T01:21:51.377Z,1014.19
2017-08-10T01:23:01.625Z,1014.22
2017-08-10T01:24:11.252Z,1014.24
2017-08-10T01:25:21.582Z,1014.24
2017-08-10T01:26:31.505Z,1014.28
2017-08-10T01:27:41.119Z,1014.35
2017-08-10T01:28:51.350Z,1014.35
2017-08-10T01:30:01.574Z,1014.35
2017-08-10T01:31:11.631Z,1014.37
2017-08-10T01:32:21.558Z,1014.4
2017-08-10T01:33:31.460Z,1014.37
2017-08-10T01:34:40.775Z,1014.37
2017-08-10T01:35:50.720Z,1014.41
2017-08-10T01:37:00.940Z,1014.38
2017-08-10T01:38:10.561Z,1014.34
2017-08-10T01:39:20.187Z,1014.39
2017-08-10T01:40:30.411Z,1014.37
2017-08-10T01:41:40.344Z,1014.37
2017-08-10T01:42:50.660Z,1014.37
2017-08-10T01:44:00.575Z,1014.46
2017-08-10T01:45:10.494Z,1014.46
2017-08-10T01:46:20.095Z,1014.44
2017-08-10T01:47:29.400Z,1014.44
2017-08-10T01:48:39.060Z,1014.44
2017-08-10T01:49:49.292Z,1014.37
2017-08-10T01:50:59.204Z,1014.36
2017-08-10T01:52:09.115Z,1014.34
2017-08-10T01:53:19.352Z,1014.32
2017-08-10T01:54:29.735Z,1014.26
2017-08-10T01:55:39.676Z,1014.28
2017-08-10T01:56:49.892Z,1014.22
2017-08-10T01:57:59.827Z,1014.22
2017-08-10T01:59:09.446Z,1014.21
2017-08-10T02:00:19.838Z,1014.15
2017-08-10T02:01:30.056Z,1014.13
2017-08-10T02:02:40.271Z,1014.07
2017-08-10T02:03:50.176Z,1013.99
2017-08-10T02:05:00.096Z,1014.02
2017-08-10T02:06:09.707Z,1014
2017-08-10T02:07:19.328Z,1013.99
2017-08-10T02:08:29.283Z,1013.93
2017-08-10T02:09:39.498Z,1013.98
2017-08-10T02:10:48.807Z,1014.03
2017-08-10T02:11:58.142Z,1014.08
2017-08-10T02:13:08.052Z,1014.06
2017-08-10T02:14:17.649Z,1014.05
2017-08-10T02:15:27.587Z,1014.08
2017-08-10T02:16:37.511Z,1014.06
2017-08-10T02:17:47.193Z,1014.07
2017-08-10T02:18:57.111Z,1014.1
2017-08-10T02:20:07.363Z,1014.1
2017-08-10T02:21:17.582Z,1014.07
2017-08-10T02:22:27.201Z,1014.04
2017-08-10T02:23:36.817Z,1014.07
2017-08-10T02:24:46.729Z,1014.11
2017-08-10T02:25:56.639Z,1014.14
2017-08-10T02:27:05.320Z,1014.17
2017-08-10T02:28:15.234Z,1014.19
2017-08-10T02:29:24.834Z,1014.18
2017-08-10T02:30:34.743Z,1014.17
2017-08-10T02:31:44.684Z,1014.17
2017-08-10T02:32:54.906Z,1014.18
2017-08-10T02:34:05.125Z,1014.17
2017-08-10T02:35:15.105Z,1014.17
2017-08-10T02:36:25.332Z,1014.15
2017-08-10T02:37:35.270Z,1014.23
2017-08-10T02:38:45.486Z,1014.21
2017-08-10T02:39:55.711Z,1014.24
2017-08-10T02:41:05.476Z,1014.28
2017-08-10T02:42:15.706Z,1014.33
2017-08-10T02:43:25.633Z,1014.35
2017-08-10T02:44:35.549Z,1014.39
2017-08-10T02:45:45.457Z,1014.39
2017-08-10T02:46:55.503Z,1014.41
2017-08-10T02:48:04.799Z,1014.44
2017-08-10T02:49:14.700Z,1014.41
2017-08-10T02:50:23.389Z,1014.4
2017-08-10T02:51:33.314Z,1014.37
2017-08-10T02:52:43.372Z,1014.36
2017-08-10T02:53:53.300Z,1014.3
2017-08-10T02:55:02.923Z,1014.26
2017-08-10T02:56:12.543Z,1014.25
2017-08-10T02:57:22.474Z,1014.26
2017-08-10T02:58:32.549Z,1014.25
2017-08-10T02:59:42.457Z,1014.23
2017-08-10T03:00:52.084Z,1014.23
2017-08-10T03:02:02.323Z,1014.28
2017-08-10T03:03:11.973Z,1014.34
2017-08-10T03:04:21.958Z,1014.34
2017-08-10T03:05:31.262Z,1014.39
2017-08-10T03:06:41.485Z,1014.32
2017-08-10T03:07:51.445Z,1014.36
2017-08-10T03:09:01.048Z,1014.33
2017-08-10T03:10:10.964Z,1014.34
2017-08-10T03:11:20.557Z,1014.41
2017-08-10T03:12:30.771Z,1014.41
2017-08-10T03:13:41.009Z,1014.38
2017-08-10T03:14:50.915Z,1014.42
2017-08-10T03:16:00.602Z,1014.44
2017-08-10T03:17:10.817Z,1014.44
2017-08-10T03:18:20.420Z,1014.46
2017-08-10T03:19:30.341Z,1014.43
2017-08-10T03:20:39.972Z,1014.4
2017-08-10T03:21:49.882Z,1014.43
2017-08-10T03:22:59.492Z,1014.37
2017-08-10T03:24:09.399Z,1014.39
2017-08-10T03:25:19.015Z,1014.42
2017-08-10T03:26:28.934Z,1014.39
2017-08-10T03:27:39.138Z,1014.39
2017-08-10T03:28:49.361Z,1014.34
2017-08-10T03:29:58.991Z,1014.34
2017-08-10T03:31:08.910Z,1014.4
2017-08-10T03:32:18.823Z,1014.41
2017-08-10T03:33:29.040Z,1014.42
2017-08-10T03:34:39.271Z,1014.41
2017-08-10T03:35:49.195Z,1014.42
2017-08-10T03:36:59.118Z,1014.47
2017-08-10T03:38:09.331Z,1014.48
2017-08-10T03:39:19.849Z,1014.51
2017-08-10T03:40:29.767Z,1014.56
2017-08-10T03:41:40.012Z,1014.54
2017-08-10T03:42:50.257Z,1014.57
2017-08-10T03:44:00.175Z,1014.58
2017-08-10T03:45:10.221Z,1014.6
2017-08-10T03:46:20.143Z,1014.6
2017-08-10T03:47:30.428Z,1014.6
2017-08-10T03:48:40.027Z,1014.57
2017-08-10T03:49:49.654Z,1014.54
2017-08-10T03:50:59.572Z,1014.55
2017-08-10T03:52:09.187Z,1014.55
2017-08-10T03:53:19.105Z,1014.51
2017-08-10T03:54:29.022Z,1014.57
2017-08-10T03:55:38.639Z,1014.56
2017-08-10T03:56:49.066Z,1014.57
2017-08-10T03:57:58.691Z,1014.6
2017-08-10T03:59:08.905Z,1014.64
2017-08-10T04:00:18.513Z,1014.68
2017-08-10T04:01:28.433Z,1014.73
2017-08-10T04:02:38.343Z,1014.73
2017-08-10T04:03:48.580Z,1014.74
2017-08-10T04:04:58.197Z,1014.69
2017-08-10T04:06:08.522Z,1014.71
2017-08-10T04:07:18.450Z,1014.75
2017-08-10T04:08:28.822Z,1014.77
2017-08-10T04:09:38.752Z,1014.76
2017-08-10T04:10:48.366Z,1014.77
2017-08-10T04:11:58.278Z,1014.76
2017-08-10T04:13:08.524Z,1014.83
2017-08-10T04:14:18.540Z,1014.85
2017-08-10T04:15:28.759Z,1014.86
2017-08-10T04:16:38.674Z,1014.85
2017-08-10T04:17:48.884Z,1014.84
2017-08-10T04:18:58.177Z,1014.8
2017-08-10T04:20:08.400Z,1014.83
2017-08-10T04:21:18.313Z,1014.81
2017-08-10T04:22:28.219Z,1014.78
2017-08-10T04:23:38.133Z,1014.79
2017-08-10T04:24:48.065Z,1014.72
2017-08-10T04:25:58.293Z,1014.73
2017-08-10T04:27:08.212Z,1014.73
2017-08-10T04:28:17.844Z,1014.74
2017-08-10T04:29:28.063Z,1014.74
2017-08-10T04:30:37.977Z,1014.72
2017-08-10T04:31:48.338Z,1014.7
2017-08-10T04:32:58.556Z,1014.65
2017-08-10T04:34:08.777Z,1014.66
2017-08-10T04:35:18.717Z,1014.7
2017-08-10T04:36:28.318Z,1014.69
2017-08-10T04:37:38.387Z,1014.66
2017-08-10T04:38:48.298Z,1014.68
2017-08-10T04:39:58.516Z,1014.7
2017-08-10T04:41:08.419Z,1014.65
2017-08-10T04:42:17.733Z,1014.67
2017-08-10T04:43:28.113Z,1014.65
2017-08-10T04:44:37.731Z,1014.63
2017-08-10T04:45:47.349Z,1014.69
2017-08-10T04:46:57.265Z,1014.68
2017-08-10T04:48:06.885Z,1014.73
2017-08-10T04:49:16.627Z,1014.75
2017-08-10T04:50:26.569Z,1014.8
2017-08-10T04:51:36.796Z,1014.85
2017-08-10T04:52:46.729Z,1014.87
2017-08-10T04:53:56.336Z,1014.81
2017-08-10T04:55:06.062Z,1014.77
2017-08-10T04:56:15.674Z,1014.71
2017-08-10T04:57:25.285Z,1014.67
2017-08-10T04:58:35.502Z,1014.71
2017-08-10T04:59:45.407Z,1014.68
2017-08-10T05:00:55.775Z,1014.7
2017-08-10T05:02:05.714Z,1014.68
2017-08-10T05:03:15.625Z,1014.7
2017-08-10T05:04:25.863Z,1014.69
2017-08-10T05:05:36.092Z,1014.71
2017-08-10T05:06:46.136Z,1014.69
2017-08-10T05:07:56.055Z,1014.64
2017-08-10T05:09:05.371Z,1014.63
2017-08-10T05:10:14.662Z,1014.62
2017-08-10T05:11:24.587Z,1014.64
2017-08-10T05:12:34.266Z,1014.63
2017-08-10T05:13:43.867Z,1014.6
2017-08-10T05:14:53.800Z,1014.6
2017-08-10T05:16:03.723Z,1014.52
2017-08-10T05:17:13.317Z,1014.48
2017-08-10T05:18:23.448Z,1014.52
2017-08-10T05:19:33.669Z,1014.56
2017-08-10T05:20:43.898Z,1014.6
2017-08-10T05:21:53.836Z,1014.66
2017-08-10T05:23:03.448Z,1014.65
2017-08-10T05:24:14.082Z,1014.72
2017-08-10T05:25:24.004Z,1014.74
2017-08-10T05:26:33.921Z,1014.68
2017-08-10T05:27:43.860Z,1014.62
2017-08-10T05:28:53.469Z,1014.58
2017-08-10T05:30:04.001Z,1014.56
2017-08-10T05:31:13.616Z,1014.56
2017-08-10T05:32:23.534Z,1014.55
2017-08-10T05:33:33.135Z,1014.56
2017-08-10T05:34:43.047Z,1014.59
2017-08-10T05:35:52.968Z,1014.58
2017-08-10T05:37:02.598Z,1014.63
2017-08-10T05:38:12.519Z,1014.56
2017-08-10T05:39:22.762Z,1014.57
2017-08-10T05:40:32.985Z,1014.61
2017-08-10T05:41:43.048Z,1014.63
2017-08-10T05:42:52.425Z,1014.67
2017-08-10T05:44:02.647Z,1014.7
2017-08-10T05:45:11.641Z,1014.69
2017-08-10T05:46:21.663Z,1014.7
2017-08-10T05:47:31.959Z,1014.73
2017-08-10T05:48:41.587Z,1014.75
2017-08-10T05:49:51.503Z,1014.78
2017-08-10T05:51:01.423Z,1014.81
2017-08-10T05:52:11.332Z,1014.85
2017-08-10T05:53:20.946Z,1014.93
2017-08-10T05:54:31.182Z,1014.95
2017-08-10T05:55:41.100Z,1015.01
2017-08-10T05:56:50.698Z,1015.06
2017-08-10T05:58:00.917Z,1015.06
2017-08-10T05:59:11.131Z,1015.11
2017-08-10T06:00:20.426Z,1015.08
2017-08-10T06:01:30.649Z,1015.09
2017-08-10T06:02:40.866Z,1015.1
2017-08-10T06:03:50.478Z,1015.08
2017-08-10T06:05:00.994Z,1015.14
2017-08-10T06:06:10.289Z,1015.15
2017-08-10T06:07:20.197Z,1015.14
2017-08-10T06:08:30.135Z,1015.14
2017-08-10T06:09:40.052Z,1015.15
2017-08-10T06:10:50.036Z,1015.09
2017-08-10T06:11:59.954Z,1015.08
2017-08-10T06:13:09.578Z,1015.03
2017-08-10T06:14:19.199Z,1015.03
2017-08-10T06:15:29.115Z,1014.95
2017-08-10T06:16:39.393Z,1014.89
2017-08-10T06:17:49.318Z,1014.84
2017-08-10T06:18:59.233Z,1014.84
2017-08-10T06:20:08.848Z,1014.83
2017-08-10T06:21:18.470Z,1014.8
2017-08-10T06:22:28.384Z,1014.76
2017-08-10T06:23:38.324Z,1014.7
2017-08-10T06:24:48.261Z,1014.69
2017-08-10T06:25:57.565Z,1014.7
2017-08-10T06:27:07.192Z,1014.71
2017-08-10T06:28:17.224Z,1014.71
2017-08-10T06:29:27.514Z,1014.7
2017-08-10T06:30:37.733Z,1014.69
2017-08-10T06:31:46.735Z,1014.69
2017-08-10T06:32:56.655Z,1014.69
2017-08-10T06:34:06.261Z,1014.69
2017-08-10T06:35:16.507Z,1014.73
2017-08-10T06:36:26.741Z,1014.75
2017-08-10T06:37:36.383Z,1014.78
2017-08-10T06:38:46.310Z,1014.85
2017-08-10T06:39:56.299Z,1014.84
2017-08-10T06:41:06.551Z,1014.92
2017-08-10T06:42:16.464Z,1014.93
2017-08-10T06:43:26.697Z,1014.95
2017-08-10T06:44:36.611Z,1014.99
2017-08-10T06:45:46.693Z,1014.95
2017-08-10T06:46:56.935Z,1014.99
2017-08-10T06:48:07.180Z,1015.02
2017-08-10T06:49:17.104Z,1015.12
2017-08-10T06:50:27.089Z,1015.15
2017-08-10T06:51:36.806Z,1015.19
2017-08-10T06:52:46.427Z,1015.27
2017-08-10T06:53:56.655Z,1015.28
2017-08-10T06:55:06.577Z,1015.31
2017-08-10T06:56:16.495Z,1015.34
2017-08-10T06:57:26.634Z,1015.36
2017-08-10T06:58:36.576Z,1015.4
2017-08-10T06:59:46.488Z,1015.41
2017-08-10T07:00:56.737Z,1015.37
2017-08-10T07:02:06.344Z,1015.4
2017-08-10T07:03:16.435Z,1015.34
2017-08-10T07:04:26.701Z,1015.34
2017-08-10T07:05:36.316Z,1015.36
2017-08-10T07:06:46.543Z,1015.34
2017-08-10T07:07:56.784Z,1015.34
2017-08-10T07:09:07.037Z,1015.3
2017-08-10T07:10:16.978Z,1015.31
2017-08-10T07:11:26.913Z,1015.31
2017-08-10T07:12:37.166Z,1015.29
2017-08-10T07:13:47.083Z,1015.28
2017-08-10T07:14:57.129Z,1015.27
2017-08-10T07:16:07.393Z,1015.3
2017-08-10T07:17:17.042Z,1015.29
2017-08-10T07:18:27.273Z,1015.28
2017-08-10T07:19:37.507Z,1015.29
2017-08-10T07:20:47.124Z,1015.36
2017-08-10T07:21:57.063Z,1015.38
2017-08-10T07:23:07.305Z,1015.36
2017-08-10T07:24:17.239Z,1015.37
2017-08-10T07:25:26.859Z,1015.36
2017-08-10T07:26:37.108Z,1015.42
2017-08-10T07:27:46.724Z,1015.44
2017-08-10T07:28:56.992Z,1015.46
2017-08-10T07:30:06.647Z,1015.45
2017-08-10T07:31:16.275Z,1015.43
2017-08-10T07:32:26.212Z,1015.48
2017-08-10T07:33:36.120Z,1015.48
2017-08-10T07:34:46.370Z,1015.54
2017-08-10T07:35:56.614Z,1015.52
2017-08-10T07:37:06.547Z,1015.57
2017-08-10T07:38:16.901Z,1015.54
2017-08-10T07:39:27.154Z,1015.57
2017-08-10T07:40:37.125Z,1015.56
2017-08-10T07:41:47.056Z,1015.58
2017-08-10T07:42:56.996Z,1015.55
2017-08-10T07:44:06.449Z,1015.57
2017-08-10T07:45:16.082Z,1015.57
2017-08-10T07:46:25.704Z,1015.57
2017-08-10T07:47:35.637Z,1015.57
2017-08-10T07:48:45.898Z,1015.58
2017-08-10T07:49:56.183Z,1015.56
2017-08-10T07:51:05.493Z,1015.56
2017-08-10T07:52:15.125Z,1015.62
2017-08-10T07:53:24.752Z,1015.63
2017-08-10T07:54:34.369Z,1015.7
2017-08-10T07:55:44.610Z,1015.7
2017-08-10T07:56:54.864Z,1015.65
2017-08-10T07:58:05.108Z,1015.63
2017-08-10T07:59:14.738Z,1015.61
2017-08-10T08:00:24.685Z,1015.59
2017-08-10T08:01:34.311Z,1015.56
2017-08-10T08:02:44.537Z,1015.59
2017-08-10T08:03:54.458Z,1015.61
2017-08-10T08:05:04.399Z,1015.6
2017-08-10T08:06:14.009Z,1015.58
2017-08-10T08:07:23.972Z,1015.64
2017-08-10T08:08:33.274Z,1015.64
2017-08-10T08:09:43.210Z,1015.62
2017-08-10T08:10:52.833Z,1015.59
2017-08-10T08:12:02.775Z,1015.6
2017-08-10T08:13:13.014Z,1015.54
2017-08-10T08:14:22.641Z,1015.56
2017-08-10T08:15:32.896Z,1015.54
2017-08-10T08:16:42.573Z,1015.5
2017-08-10T08:17:52.554Z,1015.49
2017-08-10T08:19:02.635Z,1015.46
2017-08-10T08:20:12.576Z,1015.45
2017-08-10T08:21:22.826Z,1015.46
2017-08-10T08:22:32.150Z,1015.46
2017-08-10T08:23:42.383Z,1015.51
2017-08-10T08:24:52.458Z,1015.56
2017-08-10T08:26:02.411Z,1015.59
2017-08-10T08:27:12.355Z,1015.54
2017-08-10T08:28:22.293Z,1015.55
2017-08-10T08:29:31.603Z,1015.52
2017-08-10T08:30:42.161Z,1015.47
2017-08-10T08:31:51.806Z,1015.51
2017-08-10T08:33:01.435Z,1015.53
2017-08-10T08:34:11.361Z,1015.55
2017-08-10T08:35:21.298Z,1015.55
2017-08-10T08:36:31.524Z,1015.58
2017-08-10T08:37:41.457Z,1015.55
2017-08-10T08:38:51.393Z,1015.56
2017-08-10T08:40:01.633Z,1015.62
2017-08-10T08:41:11.262Z,1015.61
2017-08-10T08:42:21.662Z,1015.64
2017-08-10T08:43:31.883Z,1015.69
2017-08-10T08:44:41.833Z,1015.7
2017-08-10T08:45:51.764Z,1015.67
2017-08-10T08:47:02.028Z,1015.72
2017-08-10T08:48:12.255Z,1015.8
2017-08-10T08:49:22.502Z,1015.82
2017-08-10T08:50:31.838Z,1015.83
2017-08-10T08:51:41.764Z,1015.85
2017-08-10T08:52:51.700Z,1015.89
2017-08-10T08:54:01.807Z,1015.86
2017-08-10T08:55:11.729Z,1015.81
2017-08-10T08:56:21.683Z,1015.74
2017-08-10T08:57:31.611Z,1015.7
2017-08-10T08:58:41.542Z,1015.69
2017-08-10T08:59:51.792Z,1015.64
2017-08-10T09:01:01.732Z,1015.65
2017-08-10T09:02:11.360Z,1015.67
2017-08-10T09:03:20.980Z,1015.65
2017-08-10T09:04:30.936Z,1015.67
2017-08-10T09:05:40.634Z,1015.62
2017-08-10T09:06:50.874Z,1015.67
2017-08-10T09:08:01.123Z,1015.67
2017-08-10T09:09:10.736Z,1015.74
2017-08-10T09:10:20.365Z,1015.8
2017-08-10T09:11:30.057Z,1015.86
2017-08-10T09:12:40.286Z,1015.84
2017-08-10T09:13:50.524Z,1015.83
2017-08-10T09:15:00.769Z,1015.85
2017-08-10T09:16:11.029Z,1015.85
2017-08-10T09:17:21.105Z,1015.86
2017-08-10T09:18:30.744Z,1015.89
2017-08-10T09:19:40.691Z,1015.88
2017-08-10T09:20:50.934Z,1015.93
2017-08-10T09:22:00.546Z,1015.92
2017-08-10T09:23:10.824Z,1015.88
2017-08-10T09:24:20.759Z,1015.88
2017-08-10T09:25:30.712Z,1015.86
2017-08-10T09:26:40.652Z,1015.83
2017-08-10T09:27:49.965Z,1015.83
2017-08-10T09:28:58.966Z,1015.82
2017-08-10T09:30:08.585Z,1015.81
2017-08-10T09:31:18.512Z,1015.83
2017-08-10T09:32:28.457Z,1015.8
2017-08-10T09:33:38.696Z,1015.83
2017-08-10T09:34:48.310Z,1015.76
2017-08-10T09:35:58.538Z,1015.74
2017-08-10T09:37:08.764Z,1015.74
2017-08-10T09:38:19.060Z,1015.72
2017-08-10T09:39:28.702Z,1015.73
2017-08-10T09:40:38.616Z,1015.74
2017-08-10T09:41:48.541Z,1015.71
2017-08-10T09:42:58.484Z,1015.77
2017-08-10T09:44:08.709Z,1015.81
2017-08-10T09:45:18.330Z,1015.84
2017-08-10T09:46:28.095Z,1015.85
2017-08-10T09:47:38.049Z,1015.87
2017-08-10T09:48:47.977Z,1015.9
2017-08-10T09:49:58.228Z,1015.87
2017-08-10T09:51:07.546Z,1015.84
2017-08-10T09:52:17.626Z,1015.79
2017-08-10T09:53:27.587Z,1015.78
2017-08-10T09:54:37.524Z,1015.79
2017-08-10T09:55:47.142Z,1015.8
2017-08-10T09:56:56.454Z,1015.84
2017-08-10T09:58:06.744Z,1015.83
2017-08-10T09:59:16.353Z,1015.83
2017-08-10T10:00:25.976Z,1015.89
2017-08-10T10:01:36.211Z,1015.9
2017-08-10T10:02:46.463Z,1015.88
2017-08-10T10:03:56.536Z,1015.87
2017-08-10T10:05:06.182Z,1015.85
2017-08-10T10:06:16.113Z,1015.87
2017-08-10T10:07:26.056Z,1015.89
2017-08-10T10:08:35.671Z,1015.86
2017-08-10T10:09:45.415Z,1015.78
2017-08-10T10:10:55.024Z,1015.76
2017-08-10T10:12:05.257Z,1015.75
2017-08-10T10:13:14.897Z,1015.78
2017-08-10T10:14:24.860Z,1015.78
2017-08-10T10:15:34.887Z,1015.83
2017-08-10T10:16:44.812Z,1015.81
2017-08-10T10:17:55.053Z,1015.87
2017-08-10T10:19:04.981Z,1015.87
2017-08-10T10:20:14.919Z,1015.82
2017-08-10T10:21:25.195Z,1015.79
2017-08-10T10:22:34.520Z,1015.74
2017-08-10T10:23:44.146Z,1015.75
2017-08-10T10:24:54.424Z,1015.74
2017-08-10T10:26:04.346Z,1015.73
2017-08-10T10:27:14.447Z,1015.7
2017-08-10T10:28:24.407Z,1015.73
2017-08-10T10:29:34.657Z,1015.74
2017-08-10T10:30:44.592Z,1015.81
2017-08-10T10:31:54.511Z,1015.88
2017-08-10T10:33:03.841Z,1015.91
2017-08-10T10:34:14.067Z,1015.97
2017-08-10T10:35:23.995Z,1015.99
2017-08-10T10:36:34.233Z,1015.99
2017-08-10T10:37:43.846Z,1015.95
2017-08-10T10:38:54.236Z,1015.96
2017-08-10T10:40:04.529Z,1015.93
2017-08-10T10:41:14.764Z,1015.93
2017-08-10T10:42:25.012Z,1015.94
2017-08-10T10:43:34.940Z,1015.97
2017-08-10T10:44:44.672Z,1015.98
2017-08-10T10:45:54.286Z,1015.97
2017-08-10T10:47:03.915Z,1016.01
2017-08-10T10:48:13.845Z,1015.99
2017-08-10T10:49:23.774Z,1016.01
2017-08-10T10:50:33.164Z,1016.01
2017-08-10T10:51:43.087Z,1016.04
2017-08-10T10:52:53.020Z,1016.06
2017-08-10T10:54:02.337Z,1016.03
2017-08-10T10:55:11.958Z,1016.06
2017-08-10T10:56:20.959Z,1016.04
2017-08-10T10:57:31.199Z,1016.06
2017-08-10T10:58:41.115Z,1016.08
2017-08-10T10:59:50.758Z,1016.06
2017-08-10T11:01:00.989Z,1016.05
2017-08-10T11:02:10.304Z,1016.04
2017-08-10T11:03:20.225Z,1016.07
2017-08-10T11:04:30.146Z,1016.06
2017-08-10T11:05:40.080Z,1016.05
2017-08-10T11:06:50.020Z,1016.09
2017-08-10T11:08:00.256Z,1016.08
2017-08-10T11:09:10.168Z,1016.07
2017-08-10T11:10:20.089Z,1016.12
2017-08-10T11:11:30.008Z,1016.15
2017-08-10T11:12:40.246Z,1016.16
2017-08-10T11:13:50.358Z,1016.12
2017-08-10T11:14:59.972Z,1016.15
2017-08-10T11:16:09.898Z,1016.12
2017-08-10T11:17:19.835Z,1016.05
2017-08-10T11:18:29.139Z,1016.06
2017-08-10T11:19:39.062Z,1016.09
2017-08-10T11:20:48.695Z,1016.13
2017-08-10T11:21:58.319Z,1016.16
2017-08-10T11:23:07.938Z,1016.18
2017-08-10T11:24:17.576Z,1016.18
2017-08-10T11:25:27.598Z,1016.22
2017-08-10T11:26:37.839Z,1016.16
2017-08-10T11:27:47.473Z,1016.15
2017-08-10T11:28:57.411Z,1016.14
2017-08-10T11:30:07.640Z,1016.15
2017-08-10T11:31:17.387Z,1016.15
2017-08-10T11:32:27.025Z,1016.15
2017-08-10T11:33:37.257Z,1016.19
2017-08-10T11:34:47.189Z,1016.18
2017-08-10T11:35:57.118Z,1016.15
2017-08-10T11:37:07.373Z,1016.13
2017-08-10T11:38:17.291Z,1016.12
2017-08-10T11:39:27.300Z,1016.1
2017-08-10T11:40:36.929Z,1016.08
2017-08-10T11:41:46.552Z,1016.07
2017-08-10T11:42:56.825Z,1016.07
2017-08-10T11:44:06.765Z,1016.09
2017-08-10T11:45:17.018Z,1016.11
2017-08-10T11:46:26.635Z,1016.05
2017-08-10T11:47:35.939Z,1016.07
2017-08-10T11:48:45.595Z,1016.06
2017-08-10T11:49:55.506Z,1016.07
2017-08-10T11:51:05.117Z,1016.02
2017-08-10T11:52:15.054Z,1016.03
2017-08-10T11:53:25.032Z,1015.96
2017-08-10T11:54:35.265Z,1015.89
2017-08-10T11:55:45.186Z,1015.84
2017-08-10T11:56:55.459Z,1015.77
2017-08-10T11:58:05.071Z,1015.75
2017-08-10T11:59:14.697Z,1015.75
2017-08-10T12:00:25.228Z,1015.8
2017-08-10T12:01:35.157Z,1015.82
2017-08-10T12:02:44.787Z,1015.89
2017-08-10T12:03:54.408Z,1015.97
2017-08-10T12:05:04.353Z,1016.04
2017-08-10T12:06:14.294Z,1016.11
2017-08-10T12:07:24.535Z,1016.12
2017-08-10T12:08:34.458Z,1016.13
2017-08-10T12:09:44.396Z,1016.13
2017-08-10T12:10:54.318Z,1016.07
2017-08-10T12:12:04.644Z,1015.97
2017-08-10T12:13:14.885Z,1015.92
2017-08-10T12:14:24.821Z,1015.82
2017-08-10T12:15:34.739Z,1015.83
2017-08-10T12:16:44.677Z,1015.84
2017-08-10T12:17:54.913Z,1015.89
2017-08-10T12:19:04.837Z,1015.94
2017-08-10T12:20:15.095Z,1015.97
2017-08-10T12:21:25.332Z,1016.02
2017-08-10T12:22:35.564Z,1016.1
2017-08-10T12:23:45.172Z,1016.06
2017-08-10T12:24:55.093Z,1016.09
2017-08-10T12:26:05.318Z,1016.15
2017-08-10T12:27:15.559Z,1016.17
2017-08-10T12:28:24.864Z,1016.22
2017-08-10T12:29:34.170Z,1016.19
2017-08-10T12:30:43.783Z,1016.14
2017-08-10T12:31:53.722Z,1016.17
2017-08-10T12:33:03.652Z,1016.13
2017-08-10T12:34:13.889Z,1016.06
2017-08-10T12:35:23.910Z,1016.05
2017-08-10T12:36:34.136Z,1016.05
2017-08-10T12:37:43.775Z,1016.09
2017-08-10T12:38:53.093Z,1016.09
2017-08-10T12:40:03.322Z,1016.05
2017-08-10T12:41:13.541Z,1016.11
2017-08-10T12:42:23.776Z,1016.12
2017-08-10T12:43:33.699Z,1016.13
2017-08-10T12:44:43.946Z,1016.13
2017-08-10T12:45:53.876Z,1016.15
2017-08-10T12:47:03.650Z,1016.16
2017-08-10T12:48:13.579Z,1016.18
2017-08-10T12:49:22.900Z,1016.16
2017-08-10T12:50:33.146Z,1016.17
2017-08-10T12:51:43.101Z,1016.13
2017-08-10T12:52:53.035Z,1016.11
2017-08-10T12:54:02.965Z,1016.12
2017-08-10T12:55:12.908Z,1016.11
2017-08-10T12:56:22.597Z,1016.08
2017-08-10T12:57:32.847Z,1016.05
2017-08-10T12:58:43.135Z,1016.05
2017-08-10T12:59:53.059Z,1016.06
2017-08-10T13:01:02.691Z,1016.04
2017-08-10T13:02:12.626Z,1016.05
2017-08-10T13:03:22.856Z,1016.12
2017-08-10T13:04:32.795Z,1016.15
2017-08-10T13:05:41.792Z,1016.18
2017-08-10T13:06:50.810Z,1016.13
2017-08-10T13:08:00.790Z,1016.14
2017-08-10T13:09:10.430Z,1016.09
2017-08-10T13:10:20.696Z,1016.07
2017-08-10T13:11:30.350Z,1016.03
2017-08-10T13:12:40.286Z,1016.05
2017-08-10T13:13:49.608Z,1016.05
2017-08-10T13:14:59.545Z,1016.03
2017-08-10T13:16:09.548Z,1016.03
2017-08-10T13:17:18.902Z,1016.04
2017-08-10T13:18:28.857Z,1015.96
2017-08-10T13:19:38.488Z,1015.95
2017-08-10T13:20:48.423Z,1015.94
2017-08-10T13:21:57.895Z,1015.96
2017-08-10T13:23:07.231Z,1015.95
2017-08-10T13:24:16.897Z,1015.93
2017-08-10T13:25:26.827Z,1015.91
2017-08-10T13:26:36.778Z,1015.88
2017-08-10T13:27:47.537Z,1015.88
2017-08-10T13:28:57.811Z,1015.87
2017-08-10T13:30:07.750Z,1015.86
2017-08-10T13:31:17.672Z,1015.81
2017-08-10T13:32:27.278Z,1015.82
2017-08-10T13:33:36.996Z,1015.82
2017-08-10T13:34:46.930Z,1015.83
2017-08-10T13:35:56.234Z,1015.86
2017-08-10T13:37:06.172Z,1015.83
2017-08-10T13:38:16.401Z,1015.83
2017-08-10T13:39:26.477Z,1015.8
2017-08-10T13:40:36.127Z,1015.83
2017-08-10T13:41:46.043Z,1015.79
2017-08-10T13:42:55.967Z,1015.84
2017-08-10T13:44:05.891Z,1015.86
2017-08-10T13:45:16.377Z,1015.85
2017-08-10T13:46:26.363Z,1015.85
2017-08-10T13:47:36.285Z,1015.85
2017-08-10T13:48:46.227Z,1015.91
2017-08-10T13:49:56.480Z,1015.9
2017-08-10T13:51:06.457Z,1015.93
2017-08-10T13:52:16.395Z,1015.92
2017-08-10T13:53:25.748Z,1015.95
2017-08-10T13:54:36.027Z,1015.96
2017-08-10T13:55:45.977Z,1015.92
2017-08-10T13:56:56.377Z,1015.96
2017-08-10T13:58:05.377Z,1015.95
2017-08-10T13:59:14.703Z,1015.98
2017-08-10T14:00:24.671Z,1015.93
2017-08-10T14:01:34.590Z,1015.93
2017-08-10T14:02:44.534Z,1015.91
2017-08-10T14:03:54.143Z,1015.89
2017-08-10T14:05:03.466Z,1015.91
2017-08-10T14:06:13.104Z,1015.89
2017-08-10T14:07:22.442Z,1015.85